Accueil
METAR-TAF:

METAR-TAF

Aéroports :

Aéroport de Shizuoka

Shizuoka, Japon

latitude: 34-47-46N, longitude: 138-11-22E, altitude: 132 m

Observation

Le bulletin a été fait il y a 29 minutes, à 08:00 UTC
Vent 8 kt de sud-ouest, variant entre sud/sud-ouest et ouest
Température 32°C
Humidité 67%
Pression 1010 hPa
Visibilité 10 km ou plus
Quelques nuages à une hauteur de 3000 ft

METAR: RJNS 210800Z 23008KT 200V260 9999 FEW030 32/25 Q1010

Heure: 17:29 (08:29 UTC)

Prévision

Le bulletin a été fait il y a 3 heures et 23 minutes, à 05:06 UTC
Prévision valable du 21 à 06 UTC au 22 à 12 UTC
Vent 10 kt de sud-ouest
Visibilité 10 km ou plus
Quelques nuages à une hauteur de 3000 ft
Temporairement
du 21 à 12 UTC au 21 à 18 UTC
Visibilité: 4000 m
Quelques nuages à une hauteur de 500 ft
Nuages fragmentés à une hauteur de 800 ft
brume,

TAF: RJNS 210506Z 2106/2212 23010KT 9999 FEW030 TEMPO 2112/2118 4000 BR FEW005 BKN008

Observations et prévisions météorologiques de plus de 4000 aéroports (messages METAR et TAF).

Les stations disponibles sont représentées par des disques jaunes et rouges sur la carte.

Passer la souris dessus pour voir le nom de la station.

Cliquer dessus pour voir les observations et prévisions météorologiques.

Pour changer de carte: cliquez sur les boutons verts avec une croix noire pour zoomer, sur le bouton vert avec un tiret pour effectuer un zoom arrière, ou sur les flèches vertes pour les cartes adjacentes.


METAR-TAF: